Time;durP1;ratioP1;P1;durP2;ratioP2;P2;SDS_P1;SDS_P2;PMS_P1;PMS_P2;Temp;Humidity;BMP_temperature;BMP_pressure;BME280_temperature;BME280_humidity;BME280_pressure;Samples;Min_cycle;Max_cycle;Signal;HPM_P1;HPM_P2
2022/12/22 03:26:16;;;;;;;4.68;2.10;;;;;;;;;;5123782;28;20046;-74
2022/12/22 03:28:41;;;;;;;7.20;2.40;;;;;;;;;;5124546;28;20031;-71
2022/12/22 03:31:07;;;;;;;5.32;2.10;;;;;;;;;;5124678;28;20554;-71
2022/12/22 03:33:32;;;;;;;6.53;2.15;;;;;;;;;;5124758;28;20098;-73
2022/12/22 03:35:58;;;;;;;5.43;2.20;;;;;;;;;;5123676;28;20068;-73
2022/12/22 03:38:24;;;;;;;4.40;2.10;;;;;;;;;;5121769;28;20341;-73
2022/12/22 03:40:50;;;;;;;6.00;2.25;;;;;;;;;;5123294;28;20088;-74
2022/12/22 03:48:42;;;;;;;5.03;2.20;;;;;;;;;;5123481;28;20034;-73
2022/12/22 03:51:07;;;;;;;4.70;2.20;;;;;;;;;;5123051;28;20022;-73
2022/12/22 03:53:33;;;;;;;6.10;2.28;;;;;;;;;;5122803;28;20091;-72
2022/12/22 03:55:58;;;;;;;6.13;2.00;;;;;;;;;;5122674;28;20224;-73
2022/12/22 03:58:24;;;;;;;5.00;2.45;;;;;;;;;;5122697;28;20180;-72
2022/12/22 04:00:49;;;;;;;4.63;2.28;;;;;;;;;;5122851;27;20277;-74
2022/12/22 04:03:15;;;;;;;7.82;2.33;;;;;;;;;;5121989;28;20024;-73
2022/12/22 04:05:40;;;;;;;5.90;2.10;;;;;;;;;;5122518;27;20042;-72
2022/12/22 04:08:06;;;;;;;4.93;1.92;;;;;;;;;;5120627;28;20107;-74
2022/12/22 04:13:16;;;;;;;6.50;2.13;;;;;;;;;;5123781;28;20038;-72
2022/12/22 04:15:41;;;;;;;4.63;1.98;;;;;;;;;;5123736;28;20282;-73
2022/12/22 04:18:06;;;;;;;4.97;1.92;;;;;;;;;;5123464;28;20027;-72
2022/12/22 04:20:32;;;;;;;4.82;1.80;;;;;;;;;;5123836;28;20091;-71
2022/12/22 04:22:58;;;;;;;4.43;2.00;;;;;;;;;;5123739;28;20083;-74
2022/12/22 04:25:25;;;;;;;4.95;1.90;;;;;;;;;;5123137;28;20228;-75
2022/12/22 04:27:50;;;;;;;3.78;2.03;;;;;;;;;;5123289;28;20030;-72
2022/12/22 04:30:16;;;;;;;4.07;2.10;;;;;;;;;;5121882;28;20032;-72
2022/12/22 04:32:41;;;;;;;4.05;1.70;;;;;;;;;;5122517;28;20032;-73
2022/12/22 04:35:08;;;;;;;4.15;1.75;;;;;;;;;;5122343;28;20153;-74
2022/12/22 04:37:33;;;;;;;5.05;2.00;;;;;;;;;;5122235;28;20250;-74
2022/12/22 04:39:59;;;;;;;5.45;2.17;;;;;;;;;;5123247;28;20331;-72
2022/12/22 04:42:24;;;;;;;3.63;2.00;;;;;;;;;;5122622;28;20019;-73
2022/12/22 04:44:50;;;;;;;6.57;2.00;;;;;;;;;;5123043;28;20270;-73
2022/12/22 04:47:15;;;;;;;4.28;2.00;;;;;;;;;;5123248;28;20226;-74
2022/12/22 04:49:41;;;;;;;5.55;1.85;;;;;;;;;;5122957;28;20023;-72
2022/12/22 04:52:07;;;;;;;5.95;1.90;;;;;;;;;;5122986;28;20080;-71
2022/12/22 04:54:32;;;;;;;4.05;1.90;;;;;;;;;;5122009;28;20035;-71
2022/12/22 04:56:58;;;;;;;6.72;2.03;;;;;;;;;;5121346;28;20090;-71
2022/12/22 04:59:23;;;;;;;5.20;1.90;;;;;;;;;;5120997;28;20212;-71
2022/12/22 05:01:48;;;;;;;3.83;1.90;;;;;;;;;;5121398;28;20252;-71
2022/12/22 05:04:14;;;;;;;6.32;2.00;;;;;;;;;;5121795;28;20027;-71
2022/12/22 05:06:39;;;;;;;5.63;2.45;;;;;;;;;;5119573;28;20034;-70
2022/12/22 05:09:05;;;;;;;4.72;2.20;;;;;;;;;;5121597;28;20381;-70
2022/12/22 05:11:30;;;;;;;4.30;2.05;;;;;;;;;;5122713;28;20034;-71
2022/12/22 05:13:55;;;;;;;4.57;2.10;;;;;;;;;;5122682;28;20033;-71
2022/12/22 05:16:21;;;;;;;4.53;2.03;;;;;;;;;;5122514;28;20031;-71
2022/12/22 05:18:46;;;;;;;3.97;2.10;;;;;;;;;;5122780;28;20023;-73
2022/12/22 05:21:20;;;;;;;4.53;2.45;;;;;;;;;;5122624;28;20043;-71
2022/12/22 05:23:46;;;;;;;4.15;2.00;;;;;;;;;;5122750;28;20027;-73
2022/12/22 05:26:13;;;;;;;3.83;1.50;;;;;;;;;;5121310;28;20066;-73
2022/12/22 05:28:40;;;;;;;4.28;2.10;;;;;;;;;;5121264;28;20023;-73
2022/12/22 05:31:13;;;;;;;5.85;2.13;;;;;;;;;;5121079;28;20035;-73
2022/12/22 05:33:39;;;;;;;5.00;1.85;;;;;;;;;;5121321;28;20036;-72
2022/12/22 05:36:04;;;;;;;5.97;2.30;;;;;;;;;;5121996;28;20043;-73
2022/12/22 05:38:30;;;;;;;5.65;2.17;;;;;;;;;;5122436;28;20023;-72
2022/12/22 05:40:55;;;;;;;4.18;1.95;;;;;;;;;;5122340;28;20055;-74
2022/12/22 05:43:21;;;;;;;4.80;2.03;;;;;;;;;;5121626;28;20028;-72
2022/12/22 05:45:46;;;;;;;3.80;2.03;;;;;;;;;;5121065;28;20039;-73
2022/12/22 05:48:12;;;;;;;7.63;2.20;;;;;;;;;;5121307;28;20315;-74
2022/12/22 05:50:38;;;;;;;4.20;2.03;;;;;;;;;;5120603;28;20028;-72
2022/12/22 05:53:05;;;;;;;5.75;2.30;;;;;;;;;;5122303;28;20028;-73
2022/12/22 05:55:30;;;;;;;5.40;2.40;;;;;;;;;;5125001;28;20031;-73
2022/12/22 05:57:56;;;;;;;5.10;2.10;;;;;;;;;;5125215;28;20244;-72
2022/12/22 06:00:23;;;;;;;5.45;2.08;;;;;;;;;;5126023;28;20028;-71
2022/12/22 06:02:48;;;;;;;5.80;2.08;;;;;;;;;;5126286;28;20034;-72
2022/12/22 06:05:14;;;;;;;4.47;2.00;;;;;;;;;;5124121;28;20032;-72
2022/12/22 06:07:40;;;;;;;3.17;1.85;;;;;;;;;;5123030;27;20043;-74
2022/12/22 06:10:07;;;;;;;4.40;2.20;;;;;;;;;;5125195;28;20311;-73
2022/12/22 06:12:32;;;;;;;7.20;2.60;;;;;;;;;;5125936;28;20115;-72
2022/12/22 06:14:57;;;;;;;8.57;2.80;;;;;;;;;;5126400;28;20045;-71
2022/12/22 06:17:23;;;;;;;5.05;2.33;;;;;;;;;;5125875;28;20031;-74
2022/12/22 06:19:48;;;;;;;4.65;2.08;;;;;;;;;;5124759;28;20250;-74
2022/12/22 06:22:14;;;;;;;5.22;2.03;;;;;;;;;;5125276;28;20155;-72
2022/12/22 06:24:39;;;;;;;4.80;2.38;;;;;;;;;;5124547;28;20301;-73
2022/12/22 06:27:04;;;;;;;7.55;2.22;;;;;;;;;;5124773;28;20047;-71
2022/12/22 06:29:30;;;;;;;4.90;2.80;;;;;;;;;;5125730;28;20047;-71
2022/12/22 06:31:55;;;;;;;5.25;2.50;;;;;;;;;;5125602;28;20098;-71
2022/12/22 06:34:21;;;;;;;6.20;2.70;;;;;;;;;;5125938;28;20091;-71
2022/12/22 06:36:47;;;;;;;5.93;2.40;;;;;;;;;;5125529;28;20026;-71
2022/12/22 06:39:13;;;;;;;6.93;3.17;;;;;;;;;;5125628;28;20242;-70
2022/12/22 06:44:23;;;;;;;5.90;2.58;;;;;;;;;;5123665;28;20019;-72
2022/12/22 06:46:48;;;;;;;5.25;2.58;;;;;;;;;;5125202;28;20250;-71
2022/12/22 06:49:14;;;;;;;5.88;2.50;;;;;;;;;;5118111;28;20019;-72
2022/12/22 06:51:39;;;;;;;7.60;3.03;;;;;;;;;;5114830;28;20057;-71
2022/12/22 06:54:05;;;;;;;4.93;2.38;;;;;;;;;;5115965;28;20020;-72
2022/12/22 06:56:30;;;;;;;6.97;2.90;;;;;;;;;;5121802;28;20019;-71
2022/12/22 06:58:56;;;;;;;6.13;2.50;;;;;;;;;;5124077;28;20028;-69
2022/12/22 07:01:21;;;;;;;7.30;2.58;;;;;;;;;;5124715;28;20051;-72
2022/12/22 07:03:46;;;;;;;3.92;2.17;;;;;;;;;;5124242;28;20023;-69
2022/12/22 07:06:12;;;;;;;5.30;2.40;;;;;;;;;;5123077;28;20427;-73
2022/12/22 07:08:37;;;;;;;4.13;2.13;;;;;;;;;;5124266;28;20082;-78
2022/12/22 07:11:03;;;;;;;6.43;2.58;;;;;;;;;;5122178;28;20051;-77
2022/12/22 07:13:33;;;;;;;5.72;2.60;;;;;;;;;;5125215;28;20377;-78
2022/12/22 07:16:00;;;;;;;5.60;2.40;;;;;;;;;;5132341;28;20031;-83
2022/12/22 07:18:26;;;;;;;5.05;2.50;;;;;;;;;;5127855;28;20035;-76
2022/12/22 07:20:52;;;;;;;8.35;3.60;;;;;;;;;;5123461;28;20039;-74
2022/12/22 07:23:17;;;;;;;9.32;3.33;;;;;;;;;;5123122;28;20019;-74
2022/12/22 07:25:43;;;;;;;7.95;3.08;;;;;;;;;;5124127;28;20035;-74
2022/12/22 07:28:08;;;;;;;6.95;3.50;;;;;;;;;;5124198;28;20060;-74
2022/12/22 07:30:35;;;;;;;6.10;2.97;;;;;;;;;;5124572;28;20288;-74
2022/12/22 07:33:02;;;;;;;8.73;3.42;;;;;;;;;;5124413;28;20024;-72
2022/12/22 07:35:28;;;;;;;8.18;3.50;;;;;;;;;;5124117;28;20312;-72
2022/12/22 07:37:53;;;;;;;7.47;3.40;;;;;;;;;;5124067;28;20023;-69
2022/12/22 07:40:18;;;;;;;7.57;4.00;;;;;;;;;;5124456;28;20375;-67
2022/12/22 07:42:44;;;;;;;9.82;3.28;;;;;;;;;;5124156;28;20085;-68
2022/12/22 07:45:14;;;;;;;8.27;3.88;;;;;;;;;;5121250;28;20207;-70
2022/12/22 07:47:40;;;;;;;8.13;3.45;;;;;;;;;;5111518;28;20463;-70
2022/12/22 07:50:26;;;;;;;12.45;3.72;;;;;;;;;;5111938;28;20052;-70
2022/12/22 07:52:56;;;;;;;9.52;4.07;;;;;;;;;;5112349;28;20108;-70
2022/12/22 07:55:23;;;;;;;9.63;3.30;;;;;;;;;;5111451;28;20122;-70
2022/12/22 07:57:48;;;;;;;11.18;3.50;;;;;;;;;;5118428;28;20020;-70
2022/12/22 08:00:15;;;;;;;8.88;3.08;;;;;;;;;;5123952;28;20251;-70
2022/12/22 08:02:40;;;;;;;9.65;3.30;;;;;;;;;;5117460;28;20038;-70
2022/12/22 08:05:07;;;;;;;8.35;3.63;;;;;;;;;;5112674;28;20023;-70
2022/12/22 08:07:33;;;;;;;9.68;3.50;;;;;;;;;;5111796;28;20453;-70
2022/12/22 08:09:58;;;;;;;7.55;3.55;;;;;;;;;;5112265;28;20024;-70
2022/12/22 08:12:24;;;;;;;8.52;3.22;;;;;;;;;;5111812;28;20058;-69
2022/12/22 08:14:49;;;;;;;8.02;3.35;;;;;;;;;;5110471;28;20544;-70
2022/12/22 08:17:14;;;;;;;8.40;3.15;;;;;;;;;;5109583;28;20416;-71
2022/12/22 08:19:40;;;;;;;9.68;3.53;;;;;;;;;;5110647;28;20023;-69
2022/12/22 08:22:05;;;;;;;6.80;3.28;;;;;;;;;;5110407;28;20424;-69
2022/12/22 08:24:31;;;;;;;9.63;3.53;;;;;;;;;;5110367;28;20023;-69
2022/12/22 08:27:07;;;;;;;9.05;3.42;;;;;;;;;;5109643;28;20043;-69
2022/12/22 08:29:42;;;;;;;11.38;3.35;;;;;;;;;;5111714;28;20031;-69
2022/12/22 08:32:09;;;;;;;10.98;3.47;;;;;;;;;;5111849;28;20059;-68
2022/12/22 08:34:34;;;;;;;9.50;3.53;;;;;;;;;;5112207;28;20028;-68
2022/12/22 08:37:03;;;;;;;16.10;4.15;;;;;;;;;;5112047;28;20026;-69
2022/12/22 08:39:31;;;;;;;11.43;3.95;;;;;;;;;;5112197;28;20031;-68
2022/12/22 08:41:57;;;;;;;18.75;4.78;;;;;;;;;;5107876;28;20047;-73
2022/12/22 08:44:25;;;;;;;14.13;4.75;;;;;;;;;;5091257;28;20506;-69
2022/12/22 08:46:53;;;;;;;11.43;4.93;;;;;;;;;;5091253;28;20403;-70
2022/12/22 08:49:18;;;;;;;20.48;5.25;;;;;;;;;;5091104;28;20461;-68
2022/12/22 08:51:44;;;;;;;19.55;5.57;;;;;;;;;;5091221;28;20028;-68
2022/12/22 08:54:10;;;;;;;15.98;5.18;;;;;;;;;;5091386;28;20111;-68
2022/12/22 08:56:36;;;;;;;12.85;4.85;;;;;;;;;;5091229;28;20613;-68
2022/12/22 08:59:04;;;;;;;16.48;4.40;;;;;;;;;;5089499;28;20148;-70
2022/12/22 09:01:31;;;;;;;10.57;4.22;;;;;;;;;;5091173;28;20031;-73
2022/12/22 09:03:58;;;;;;;11.95;4.13;;;;;;;;;;5090706;28;20076;-69
2022/12/22 09:06:24;;;;;;;9.70;3.70;;;;;;;;;;5091037;28;20034;-68
2022/12/22 09:08:58;;;;;;;9.40;3.70;;;;;;;;;;5090811;28;20028;-68
2022/12/22 09:11:23;;;;;;;9.27;3.40;;;;;;;;;;5091168;28;20111;-70
2022/12/22 09:13:56;;;;;;;9.10;3.47;;;;;;;;;;5090728;28;20497;-72
2022/12/22 09:16:23;;;;;;;12.98;3.65;;;;;;;;;;5091012;28;20024;-71
2022/12/22 09:18:48;;;;;;;8.73;3.78;;;;;;;;;;5090554;28;20026;-69
2022/12/22 09:21:14;;;;;;;14.57;3.75;;;;;;;;;;5090864;28;20020;-72
2022/12/22 09:23:40;;;;;;;11.23;4.32;;;;;;;;;;5090628;28;20036;-70
2022/12/22 09:26:11;;;;;;;15.68;4.68;;;;;;;;;;5090672;28;20060;-76
2022/12/22 09:28:37;;;;;;;10.35;4.40;;;;;;;;;;5090237;28;20036;-75
2022/12/22 09:31:03;;;;;;;11.70;4.22;;;;;;;;;;5090761;28;20016;-69
2022/12/22 09:33:29;;;;;;;15.35;4.60;;;;;;;;;;5090520;28;20054;-68
2022/12/22 09:35:55;;;;;;;14.07;5.45;;;;;;;;;;5090718;28;20028;-69
2022/12/22 09:38:20;;;;;;;14.25;5.30;;;;;;;;;;5090075;28;20032;-69
2022/12/22 09:40:46;;;;;;;10.27;3.83;;;;;;;;;;5090671;28;20441;-69
2022/12/22 09:43:15;;;;;;;10.00;3.63;;;;;;;;;;5090425;28;20046;-71
2022/12/22 09:45:41;;;;;;;8.82;3.55;;;;;;;;;;5090797;28;20020;-69
2022/12/22 09:48:11;;;;;;;8.95;3.10;;;;;;;;;;5090414;28;20028;-69
2022/12/22 09:50:38;;;;;;;9.63;3.22;;;;;;;;;;5090636;28;20036;-68
2022/12/22 09:53:07;;;;;;;11.73;3.40;;;;;;;;;;5090165;28;20028;-70
2022/12/22 09:55:50;;;;;;;8.85;3.20;;;;;;;;;;5090346;28;20072;-69
2022/12/22 09:58:34;;;;;;;9.57;4.00;;;;;;;;;;5099275;28;20066;-69
2022/12/22 10:01:31;;;;;;;11.50;4.07;;;;;;;;;;5091548;28;20020;-70
2022/12/22 10:04:13;;;;;;;11.40;3.42;;;;;;;;;;5098143;28;20043;-69
2022/12/22 10:06:45;;;;;;;9.68;3.30;;;;;;;;;;5100717;28;20024;-69
2022/12/22 10:09:31;;;;;;;9.27;3.30;;;;;;;;;;5096586;28;20042;-69
2022/12/22 10:12:02;;;;;;;11.13;3.67;;;;;;;;;;5099459;28;20051;-67
2022/12/22 10:14:33;;;;;;;11.55;4.00;;;;;;;;;;5101489;28;20400;-71
2022/12/22 10:17:26;;;;;;;10.45;3.60;;;;;;;;;;5112506;28;20140;-71
2022/12/22 10:20:04;;;;;;;11.50;4.43;;;;;;;;;;5116129;28;20020;-74
2022/12/22 10:22:46;;;;;;;12.27;4.70;;;;;;;;;;5119646;28;20034;-69
2022/12/22 10:25:31;;;;;;;13.65;5.68;;;;;;;;;;5112905;28;20023;-73
2022/12/22 10:28:00;;;;;;;13.77;5.55;;;;;;;;;;5117478;28;20034;-70
2022/12/22 10:30:30;;;;;;;13.70;5.22;;;;;;;;;;5113339;28;20027;-70
2022/12/22 10:33:02;;;;;;;16.55;5.90;;;;;;;;;;5119318;28;20327;-74
2022/12/22 10:35:55;;;;;;;16.58;5.32;;;;;;;;;;5120540;28;20032;-73
2022/12/22 10:38:36;;;;;;;14.00;5.80;;;;;;;;;;5114786;28;20073;-72
2022/12/22 10:41:22;;;;;;;12.23;5.60;;;;;;;;;;5125457;28;20045;-70
2022/12/22 10:43:54;;;;;;;12.18;5.18;;;;;;;;;;5122415;28;20035;-71
2022/12/22 10:46:34;;;;;;;13.98;4.70;;;;;;;;;;5119709;28;20062;-76
2022/12/22 10:49:28;;;;;;;12.75;5.00;;;;;;;;;;5119348;28;20031;-70
2022/12/22 10:52:14;;;;;;;13.90;4.75;;;;;;;;;;5119843;28;20115;-72
2022/12/22 10:54:41;;;;;;;9.30;4.20;;;;;;;;;;5119765;28;20667;-71
2022/12/22 10:57:13;;;;;;;13.60;4.30;;;;;;;;;;5118802;28;20022;-70
2022/12/22 10:59:53;;;;;;;7.22;4.05;;;;;;;;;;5119171;28;20124;-70
2022/12/22 11:02:33;;;;;;;;;;;;;;;;;;5121585;28;20015;-70
2022/12/22 11:05:10;;;;;;;7.85;3.17;;;;;;;;;;5122816;28;19912;-71
2022/12/22 11:07:40;;;;;;;6.53;2.75;;;;;;;;;;5116204;28;20028;-70
2022/12/22 11:10:24;;;;;;;9.20;2.90;;;;;;;;;;5114547;28;20307;-70
2022/12/22 11:12:56;;;;;;;7.53;2.70;;;;;;;;;;5094917;28;20743;-70
2022/12/22 11:15:33;;;;;;;7.47;2.78;;;;;;;;;;5100167;28;20028;-70
2022/12/22 11:18:40;;;;;;;7.00;2.85;;;;;;;;;;5095482;28;20020;-70
2022/12/22 11:21:29;;;;;;;7.95;2.80;;;;;;;;;;5089065;28;20119;-70
2022/12/22 11:24:32;;;;;;;7.32;2.55;;;;;;;;;;5097648;28;20087;-70
2022/12/22 11:27:21;;;;;;;7.53;2.10;;;;;;;;;;5096083;28;20118;-70
2022/12/22 11:30:14;;;;;;;6.30;2.22;;;;;;;;;;5091143;28;20107;-69
2022/12/22 11:32:58;;;;;;;8.20;1.70;;;;;;;;;;5095250;28;20031;-72
2022/12/22 11:36:00;;;;;;;9.73;1.92;;;;;;;;;;5098068;28;20085;-69
2022/12/22 11:38:45;;;;;;;6.65;1.88;;;;;;;;;;5103126;28;20032;-71
2022/12/22 11:41:35;;;;;;;5.20;1.67;;;;;;;;;;5103754;28;20024;-70
2022/12/22 11:44:15;;;;;;;4.77;1.40;;;;;;;;;;5103686;28;20028;-70
2022/12/22 11:46:46;;;;;;;5.47;1.63;;;;;;;;;;5103759;28;20035;-72
2022/12/22 11:49:48;;;;;;;5.13;1.50;;;;;;;;;;5101664;28;20401;-70
2022/12/22 11:52:20;;;;;;;5.57;1.40;;;;;;;;;;5116033;28;20039;-72
2022/12/22 11:55:12;;;;;;;4.30;1.23;;;;;;;;;;5123809;28;20031;-72
2022/12/22 11:58:11;;;;;;;7.00;1.40;;;;;;;;;;5110656;28;20440;-76
2022/12/22 12:00:47;;;;;;;2.40;1.13;;;;;;;;;;5117269;28;20038;-77
2022/12/22 12:03:40;;;;;;;4.93;1.38;;;;;;;;;;5117269;28;20036;-74
2022/12/22 12:06:14;;;;;;;3.13;1.20;;;;;;;;;;5110952;28;20125;-74
2022/12/22 12:09:03;;;;;;;5.88;1.30;;;;;;;;;;5112303;28;20034;-74
2022/12/22 12:11:34;;;;;;;3.22;1.15;;;;;;;;;;5112051;28;20492;-73
2022/12/22 12:14:12;;;;;;;3.53;1.00;;;;;;;;;;5114640;28;20494;-72
2022/12/22 12:16:59;;;;;;;3.17;1.00;;;;;;;;;;5114694;28;20046;-76
2022/12/22 12:19:52;;;;;;;4.95;1.10;;;;;;;;;;5117633;28;20053;-76
2022/12/22 12:22:36;;;;;;;4.00;0.90;;;;;;;;;;5121143;28;20046;-76
2022/12/22 12:25:21;;;;;;;4.38;1.30;;;;;;;;;;5123185;28;20066;-78
2022/12/22 12:27:46;;;;;;;3.25;1.30;;;;;;;;;;5122243;28;20039;-78
2022/12/22 12:30:18;;;;;;;1.67;0.80;;;;;;;;;;5123395;28;20019;-76
2022/12/22 12:32:47;;;;;;;2.10;0.88;;;;;;;;;;5116880;28;20095;-73
2022/12/22 12:35:18;;;;;;;2.25;0.80;;;;;;;;;;5122368;28;20023;-78
2022/12/22 12:37:52;;;;;;;3.58;1.08;;;;;;;;;;5123148;28;20188;-77
2022/12/22 12:40:33;;;;;;;3.47;1.10;;;;;;;;;;5120555;28;20026;-75
2022/12/22 12:43:01;;;;;;;5.05;1.10;;;;;;;;;;5110370;28;20084;-77
2022/12/22 12:45:40;;;;;;;3.25;1.10;;;;;;;;;;5111647;28;20028;-75
2022/12/22 12:48:23;;;;;;;4.18;1.30;;;;;;;;;;5118364;28;20031;-75
2022/12/22 12:50:56;;;;;;;2.95;1.17;;;;;;;;;;5121540;28;20038;-73
2022/12/22 12:53:28;;;;;;;4.60;1.25;;;;;;;;;;5118255;28;20051;-72
2022/12/22 12:56:03;;;;;;;3.50;1.27;;;;;;;;;;5116821;28;20039;-72
2022/12/22 12:58:37;;;;;;;5.70;1.27;;;;;;;;;;5119355;28;20084;-71
2022/12/22 13:01:15;;;;;;;4.20;1.30;;;;;;;;;;5109699;28;20028;-71
2022/12/22 13:03:42;;;;;;;4.85;1.70;;;;;;;;;;5121773;28;20117;-77
2022/12/22 13:06:09;;;;;;;3.15;1.15;;;;;;;;;;5122414;28;20031;-73
2022/12/22 13:09:01;;;;;;;4.40;1.00;;;;;;;;;;5119760;28;20081;-73
2022/12/22 13:11:32;;;;;;;3.33;1.10;;;;;;;;;;5108438;28;20410;-73
2022/12/22 13:13:58;;;;;;;2.72;1.15;;;;;;;;;;5121602;28;20027;-74
2022/12/22 13:16:26;;;;;;;6.70;1.30;;;;;;;;;;5122583;28;20028;-73
2022/12/22 13:18:57;;;;;;;6.00;1.48;;;;;;;;;;5120281;28;20031;-73
2022/12/22 13:21:35;;;;;;;;;;;;;;;;;;5118916;28;20036;-73
2022/12/22 13:24:09;;;;;;;4.85;1.55;;;;;;;;;;5121599;28;19908;-73
2022/12/22 13:26:38;;;;;;;3.95;1.10;;;;;;;;;;5122126;28;20043;-73
2022/12/22 13:29:27;;;;;;;5.13;1.40;;;;;;;;;;5121804;28;20031;-73
2022/12/22 13:32:21;;;;;;;3.67;1.30;;;;;;;;;;5122237;28;20086;-74
2022/12/22 13:35:16;;;;;;;4.78;1.40;;;;;;;;;;5121364;28;20046;-72
2022/12/22 13:37:46;;;;;;;3.22;1.45;;;;;;;;;;5121838;28;20312;-74
2022/12/22 13:40:23;;;;;;;6.18;1.60;;;;;;;;;;5120849;28;20314;-71
2022/12/22 13:43:14;;;;;;;5.13;1.40;;;;;;;;;;5120576;28;20031;-72
2022/12/22 13:45:49;;;;;;;3.53;1.50;;;;;;;;;;5114778;28;20070;-73
2022/12/22 13:48:21;;;;;;;3.35;1.30;;;;;;;;;;5119391;28;20028;-72
2022/12/22 13:50:52;;;;;;;5.70;1.20;;;;;;;;;;5121375;28;20036;-73
2022/12/22 13:53:40;;;;;;;5.80;1.50;;;;;;;;;;5120884;28;20036;-73
2022/12/22 13:56:18;;;;;;;3.78;1.40;;;;;;;;;;5121125;28;20254;-72
2022/12/22 13:58:44;;;;;;;4.55;1.92;;;;;;;;;;5117904;28;20038;-71
2022/12/22 14:01:09;;;;;;;4.45;1.63;;;;;;;;;;5120142;28;20035;-73
2022/12/22 14:03:38;;;;;;;4.82;1.50;;;;;;;;;;5120808;28;20023;-74
2022/12/22 14:06:30;;;;;;;5.43;1.85;;;;;;;;;;5120580;28;20050;-74
2022/12/22 14:09:14;;;;;;;3.63;1.33;;;;;;;;;;5120353;28;20023;-71
2022/12/22 14:11:43;;;;;;;2.67;1.25;;;;;;;;;;5120486;28;20087;-74
2022/12/22 14:14:14;;;;;;;5.00;1.20;;;;;;;;;;5122256;28;20262;-71
2022/12/22 14:16:47;;;;;;;2.92;1.10;;;;;;;;;;5125445;27;20083;-75
2022/12/22 14:19:14;;;;;;;3.47;1.40;;;;;;;;;;5125531;28;20059;-74
2022/12/22 14:21:42;;;;;;;3.08;1.15;;;;;;;;;;5117993;28;20102;-73
2022/12/22 14:24:22;;;;;;;4.03;1.20;;;;;;;;;;5112671;28;20059;-72
2022/12/22 14:26:48;;;;;;;7.55;1.60;;;;;;;;;;5114521;28;20043;-77
2022/12/22 14:29:17;;;;;;;3.20;1.30;;;;;;;;;;5121814;28;20027;-79
2022/12/22 14:31:51;;;;;;;2.70;1.30;;;;;;;;;;5121530;27;20032;-75
2022/12/22 14:34:29;;;;;;;4.93;1.63;;;;;;;;;;5120701;28;20068;-72
2022/12/22 14:36:54;;;;;;;3.60;1.25;;;;;;;;;;5114780;28;20437;-73
2022/12/22 14:39:31;;;;;;;4.45;1.30;;;;;;;;;;5116989;28;20020;-74
2022/12/22 14:42:10;;;;;;;4.35;1.08;;;;;;;;;;5118193;28;20035;-74
2022/12/22 14:44:43;;;;;;;5.07;1.48;;;;;;;;;;5121216;28;20110;-76
2022/12/22 14:47:13;;;;;;;4.72;1.30;;;;;;;;;;5113532;28;20715;-74
2022/12/22 14:49:48;;;;;;;3.13;1.30;;;;;;;;;;5115358;28;20632;-72
2022/12/22 14:52:34;;;;;;;7.10;1.40;;;;;;;;;;5118533;28;20039;-74
2022/12/22 14:55:00;;;;;;;7.90;1.38;;;;;;;;;;5116277;28;20027;-70
2022/12/22 14:57:36;;;;;;;6.32;1.30;;;;;;;;;;5120120;28;20540;-71
2022/12/22 15:00:23;;;;;;;3.72;1.30;;;;;;;;;;5117197;28;20088;-71
2022/12/22 15:02:54;;;;;;;3.97;1.35;;;;;;;;;;5115314;28;20028;-72
2022/12/22 15:05:25;;;;;;;4.28;1.20;;;;;;;;;;5124321;28;20238;-73
2022/12/22 15:07:53;;;;;;;6.80;1.40;;;;;;;;;;5121241;28;20019;-71
2022/12/22 15:10:18;;;;;;;3.65;1.33;;;;;;;;;;5124254;28;20031;-72
2022/12/22 15:12:46;;;;;;;2.70;1.17;;;;;;;;;;5124261;28;20030;-71
2022/12/22 15:15:15;;;;;;;5.15;1.55;;;;;;;;;;5124806;28;20027;-69
2022/12/22 15:17:43;;;;;;;7.80;1.48;;;;;;;;;;5123376;28;20022;-71
2022/12/22 15:20:14;;;;;;;6.15;1.58;;;;;;;;;;5114854;28;20049;-72
2022/12/22 15:22:40;;;;;;;8.68;1.80;;;;;;;;;;5111645;28;20706;-73
2022/12/22 15:25:18;;;;;;;4.65;1.70;;;;;;;;;;5115138;28;20046;-71
2022/12/22 15:27:44;;;;;;;6.07;2.28;;;;;;;;;;5119454;28;20239;-72
2022/12/22 15:30:14;;;;;;;7.05;2.10;;;;;;;;;;5113097;28;20034;-71
2022/12/22 15:32:40;;;;;;;5.00;1.83;;;;;;;;;;5112023;28;20042;-72
2022/12/22 15:35:28;;;;;;;6.88;1.88;;;;;;;;;;5111548;28;20038;-72
2022/12/22 15:37:53;;;;;;;8.52;2.13;;;;;;;;;;5111743;28;20059;-72
2022/12/22 15:40:20;;;;;;;4.72;1.63;;;;;;;;;;5112523;28;20084;-72
2022/12/22 15:42:46;;;;;;;5.75;1.70;;;;;;;;;;5112268;28;20023;-72
2022/12/22 15:45:13;;;;;;;4.72;1.55;;;;;;;;;;5112449;28;20043;-71
2022/12/22 15:47:41;;;;;;;4.75;1.73;;;;;;;;;;5113732;28;20441;-71
2022/12/22 15:50:09;;;;;;;6.40;1.42;;;;;;;;;;5114207;28;20047;-73
2022/12/22 15:52:34;;;;;;;11.50;2.00;;;;;;;;;;5112401;28;20046;-72
2022/12/22 15:55:00;;;;;;;13.65;2.35;;;;;;;;;;5111498;28;20379;-73
2022/12/22 15:57:25;;;;;;;11.63;2.13;;;;;;;;;;5110598;28;20027;-73
2022/12/22 15:59:51;;;;;;;7.70;2.10;;;;;;;;;;5110689;28;20450;-72
2022/12/22 16:02:16;;;;;;;11.45;2.00;;;;;;;;;;5110963;28;20472;-74
2022/12/22 16:04:41;;;;;;;11.75;2.30;;;;;;;;;;5110951;28;20034;-74
2022/12/22 16:07:10;;;;;;;7.88;2.00;;;;;;;;;;5110960;28;20031;-72
2022/12/22 16:09:41;;;;;;;11.15;2.13;;;;;;;;;;5111627;28;20023;-74
2022/12/22 16:12:17;;;;;;;6.43;2.70;;;;;;;;;;5112278;28;20027;-72
2022/12/22 16:14:50;;;;;;;8.73;2.50;;;;;;;;;;5112081;28;20023;-72
2022/12/22 16:17:25;;;;;;;4.15;1.80;;;;;;;;;;5111875;28;20414;-73
2022/12/22 16:19:51;;;;;;;4.85;1.73;;;;;;;;;;5114772;28;20077;-73
2022/12/22 16:22:21;;;;;;;5.88;1.70;;;;;;;;;;5121061;28;20032;-72
2022/12/22 16:24:48;;;;;;;3.50;1.63;;;;;;;;;;5117961;28;20023;-71
2022/12/22 16:27:14;;;;;;;5.15;1.90;;;;;;;;;;5123120;28;20043;-72
2022/12/22 16:29:43;;;;;;;5.30;2.05;;;;;;;;;;5122953;28;20019;-71
2022/12/22 16:32:20;;;;;;;6.60;2.03;;;;;;;;;;5119370;28;20034;-71
2022/12/22 16:34:46;;;;;;;6.28;2.30;;;;;;;;;;5122018;28;20034;-72
2022/12/22 16:37:11;;;;;;;9.73;2.38;;;;;;;;;;5118519;28;20031;-72
2022/12/22 16:39:37;;;;;;;5.80;2.28;;;;;;;;;;5111468;28;20498;-76
2022/12/22 16:42:03;;;;;;;6.32;2.10;;;;;;;;;;5117418;27;20418;-73
2022/12/22 16:44:28;;;;;;;4.53;1.50;;;;;;;;;;5114667;28;20027;-72
2022/12/22 16:46:55;;;;;;;4.82;1.50;;;;;;;;;;5110060;28;20031;-75
2022/12/22 16:49:20;;;;;;;4.50;1.50;;;;;;;;;;5108154;28;20024;-74
2022/12/22 16:51:49;;;;;;;6.88;2.03;;;;;;;;;;5109742;28;20100;-74
2022/12/22 16:54:15;;;;;;;28.48;13.60;;;;;;;;;;5110070;28;20578;-73
2022/12/22 16:56:42;;;;;;;19.45;9.60;;;;;;;;;;5110191;28;20090;-73
2022/12/22 16:59:08;;;;;;;14.60;5.72;;;;;;;;;;5109815;28;20030;-74
2022/12/22 17:01:53;;;;;;;7.05;2.70;;;;;;;;;;5110316;28;20028;-73
2022/12/22 17:04:22;;;;;;;4.35;2.20;;;;;;;;;;5110081;28;20479;-74
2022/12/22 17:06:49;;;;;;;4.15;1.92;;;;;;;;;;5110418;28;20066;-72
2022/12/22 17:09:24;;;;;;;5.75;2.08;;;;;;;;;;5108922;28;20030;-74
2022/12/22 17:11:51;;;;;;;4.43;1.45;;;;;;;;;;5109788;28;20036;-73
2022/12/22 17:14:31;;;;;;;4.55;1.50;;;;;;;;;;5109302;28;20115;-73
2022/12/22 17:16:57;;;;;;;4.05;1.60;;;;;;;;;;5110247;28;20016;-72
2022/12/22 17:19:25;;;;;;;5.93;1.88;;;;;;;;;;5114383;28;20388;-74
2022/12/22 17:21:52;;;;;;;5.00;1.75;;;;;;;;;;5118029;28;20196;-73
2022/12/22 17:24:18;;;;;;;4.28;1.77;;;;;;;;;;5113507;27;20238;-75
2022/12/22 17:26:44;;;;;;;5.80;1.90;;;;;;;;;;5121297;28;20035;-73
2022/12/22 17:29:19;;;;;;;4.57;1.98;;;;;;;;;;5119117;28;20035;-73
2022/12/22 17:31:45;;;;;;;3.85;1.80;;;;;;;;;;5119718;28;20339;-74
2022/12/22 17:34:13;;;;;;;4.72;2.03;;;;;;;;;;5119238;28;20053;-73
2022/12/22 17:36:39;;;;;;;5.97;1.95;;;;;;;;;;5121482;28;20506;-73
2022/12/22 17:39:04;;;;;;;6.10;2.30;;;;;;;;;;5121170;28;20319;-73
2022/12/22 17:41:30;;;;;;;3.72;1.80;;;;;;;;;;5120379;28;20031;-73
2022/12/22 17:43:55;;;;;;;4.05;1.92;;;;;;;;;;5120613;28;20026;-73
2022/12/22 17:46:21;;;;;;;7.53;2.33;;;;;;;;;;5119080;28;20043;-73
2022/12/22 17:48:47;;;;;;;8.02;3.45;;;;;;;;;;5121762;28;20047;-72
2022/12/22 17:51:22;;;;;;;6.68;3.47;;;;;;;;;;5119535;28;20095;-75
2022/12/22 17:53:48;;;;;;;6.00;2.40;;;;;;;;;;5120784;28;20035;-77
2022/12/22 17:56:17;;;;;;;5.07;2.20;;;;;;;;;;5116873;28;20386;-74
2022/12/22 17:58:42;;;;;;;8.90;2.60;;;;;;;;;;5116132;28;20090;-74
2022/12/22 18:01:28;;;;;;;9.07;3.10;;;;;;;;;;5111109;28;20389;-73
2022/12/22 18:03:54;;;;;;;7.65;2.75;;;;;;;;;;5123112;28;20545;-75
2022/12/22 18:06:23;;;;;;;8.27;3.00;;;;;;;;;;5119393;28;20019;-74
2022/12/22 18:08:51;;;;;;;8.10;3.63;;;;;;;;;;5103987;28;20058;-74
2022/12/22 18:11:16;;;;;;;8.45;4.40;;;;;;;;;;5103823;28;20031;-75
2022/12/22 18:13:41;;;;;;;9.15;4.28;;;;;;;;;;5101545;28;20066;-73
2022/12/22 18:16:13;;;;;;;10.10;4.88;;;;;;;;;;5093731;28;20769;-75
2022/12/22 18:18:39;;;;;;;9.07;4.50;;;;;;;;;;5096756;28;20042;-73
2022/12/22 18:21:04;;;;;;;10.02;4.55;;;;;;;;;;5094870;28;20024;-76
2022/12/22 18:23:32;;;;;;;8.05;3.63;;;;;;;;;;5093479;28;20089;-72
2022/12/22 18:25:58;;;;;;;12.43;4.28;;;;;;;;;;5092482;28;20048;-74
2022/12/22 18:28:24;;;;;;;9.63;4.20;;;;;;;;;;5092604;28;20032;-76
2022/12/22 18:30:50;;;;;;;9.77;3.85;;;;;;;;;;5092679;28;20376;-75
2022/12/22 18:33:15;;;;;;;9.70;3.63;;;;;;;;;;5094351;28;20433;-75
2022/12/22 18:35:41;;;;;;;7.28;3.10;;;;;;;;;;5092400;28;20047;-75
2022/12/22 18:38:24;;;;;;;10.95;2.92;;;;;;;;;;5092750;28;20032;-74